American Star — WDD7311 — position and weather

sailwx.info

Track history (hours):
 
Tides and Currents Weather Stations Pressure Air Temp Water Temp Dewpoint Dewpoint Depression Visibility Wind Speed Wind Dir Waves Ship Positions

American Star

Owner: American Cruise Lines, Inc, Guilford, CT. More information available from US FCC via Universal Licensing System and Coast Guard Vessel Documentation Center.

Last reported at 2017-Aug-18 22:22 UTC. Time now 2017-Aug-19 05:30 UTC.
Position N 41°47' W 071°23'.

Length 60 m; draft 2.1 m.

Type: Ship (hazmat cat C). MMSI: 367184740.

Date/timePositionNaut miles runAvg speedWind from/ knotsBaromVisibWave heightAir tempDewpointWater temp
2017-Aug-18 22:22N 41°47' W 071°23'410.5
2017-Aug-18 22:00N 41°44' W 071°22'510.8
2017-Aug-18 21:30N 41°39' W 071°19'2 0.2
2017-Aug-18 14:41N 41°39' W 071°16'2 8.7
2017-Aug-18 14:27N 41°37' W 071°17'9 1.3
2017-Aug-18 07:53N 41°29' W 071°20'0 0.0
2017-Aug-18 07:29N 41°29' W 071°20'  
2017-Aug-15 09:15N 41°27' W 070°36'0 0.0
2017-Aug-15 08:57N 41°27' W 070°36'0 0.0
2017-Aug-15 08:21N 41°27' W 070°36'0 0.0
2017-Aug-15 07:39N 41°27' W 070°36'0 0.0
2017-Aug-15 07:21N 41°27' W 070°36'0 0.0
2017-Aug-15 07:00N 41°27' W 070°36'0 0.0
2017-Aug-15 06:27N 41°27' W 070°36'0 0.0
2017-Aug-15 05:57N 41°27' W 070°36'0 0.0
2017-Aug-15 05:27N 41°27' W 070°36'0 0.0
2017-Aug-15 03:15N 41°27' W 070°36'0 0.0
2017-Aug-15 03:00N 41°27' W 070°36'0 0.0
2017-Aug-15 02:27N 41°27' W 070°36'0 0.0
2017-Aug-15 01:57N 41°27' W 070°36'0 0.0
2017-Aug-15 01:30N 41°27' W 070°36'0 0.0
2017-Aug-15 01:00N 41°27' W 070°36'0 0.0
2017-Aug-15 00:30N 41°27' W 070°36'0 0.0
2017-Aug-14 23:57N 41°27' W 070°36'5 3.5
2017-Aug-14 22:38N 41°28' W 070°30'211.4
2017-Aug-14 22:30N 41°28' W 070°28'611.6
2017-Aug-14 22:00N 41°27' W 070°20'611.2
2017-Aug-14 21:29N 41°25' W 070°13'610.7
2017-Aug-14 20:56N 41°21' W 070°08'2 0.5
2017-Aug-14 16:04N 41°19' W 070°06'0 0.1
2017-Aug-14 15:58N 41°19' W 070°06'14 2.5
2017-Aug-14 10:30N 41°27' W 070°21'610.4
2017-Aug-14 09:55N 41°28' W 070°28'37 0.9
2017-Aug-12 17:47N 41°38' W 071°16'3 7.8
2017-Aug-12 17:25N 41°40' W 071°19'4 9.3
2017-Aug-12 17:00N 41°43' W 071°21'4 0.2
2017-Aug-11 22:19N 41°47' W 071°23'310.6
2017-Aug-11 22:00N 41°44' W 071°22'610.8
2017-Aug-11 21:30N 41°39' W 071°19'2 0.2
2017-Aug-11 14:43N 41°40' W 071°16'2 7.3
2017-Aug-11 14:28N 41°38' W 071°16'10 7.6
2017-Aug-11 13:12N 41°29' W 071°20'0 0.0
2017-Aug-11 13:00N 41°29' W 071°20'0 0.0
2017-Aug-11 12:29N 41°29' W 071°20'0 0.0
2017-Aug-11 11:59N 41°29' W 071°20'0 0.0
2017-Aug-11 11:29N 41°29' W 071°20'0 0.0
2017-Aug-11 10:39N 41°29' W 071°20'0 0.0
2017-Aug-11 10:21N 41°29' W 071°20'0 0.0
2017-Aug-11 10:00N 41°29' W 071°20'0 0.0
2017-Aug-11 09:27N 41°29' W 071°20'0 0.0
2017-Aug-11 07:47N 41°29' W 071°20'0 0.0
2017-Aug-11 07:30N 41°29' W 071°20'0 0.0
2017-Aug-11 06:59N 41°29' W 071°20'0 0.0
2017-Aug-11 06:29N 41°29' W 071°20'0 0.0
2017-Aug-11 05:53N 41°29' W 071°20'0 0.0
2017-Aug-11 05:27N 41°29' W 071°20'0 0.0
2017-Aug-11 04:59N 41°29' W 071°20'0 0.0
2017-Aug-11 04:29N 41°29' W 071°20'0 0.0
2017-Aug-11 03:50N 41°29' W 071°20'0 0.0
2017-Aug-11 03:29N 41°29' W 071°20'0 0.0
2017-Aug-11 02:59N 41°29' W 071°20'0 0.0
2017-Aug-11 02:29N 41°29' W 071°20'33 0.8
2017-Aug-09 09:41N 41°27' W 070°36'0 0.0
2017-Aug-09 09:30N 41°27' W 070°36'0 0.0
2017-Aug-09 07:45N 41°27' W 070°36'0 0.0
2017-Aug-09 07:30N 41°27' W 070°36'  
Track history (hours):
 
Tides and Currents Weather Stations Pressure Air Temp Water Temp Dewpoint Dewpoint Depression Visibility Wind Speed Wind Dir Waves Ship Positions

American Star

Owner: American Cruise Lines, Inc, Guilford, CT. More information available from US FCC via Universal Licensing System and Coast Guard Vessel Documentation Center.

Last reported at 2017-Aug-18 22:22 UTC. Time now 2017-Aug-19 05:30 UTC.
Position N 41°47' W 071°23'.

Length 60 m; draft 2.1 m.

Type: Ship (hazmat cat C). MMSI: 367184740.

Date/timePositionNaut miles runAvg speedWind from/ knotsBaromVisibWave heightAir tempDewpointWater temp
2017-Aug-18 22:22N 41°47' W 071°23'410.5
2017-Aug-18 22:00N 41°44' W 071°22'510.8
2017-Aug-18 21:30N 41°39' W 071°19'2 0.2
2017-Aug-18 14:41N 41°39' W 071°16'2 8.7
2017-Aug-18 14:27N 41°37' W 071°17'9 1.3
2017-Aug-18 07:53N 41°29' W 071°20'0 0.0
2017-Aug-18 07:29N 41°29' W 071°20'  
2017-Aug-15 09:15N 41°27' W 070°36'0 0.0
2017-Aug-15 08:57N 41°27' W 070°36'0 0.0
2017-Aug-15 08:21N 41°27' W 070°36'0 0.0
2017-Aug-15 07:39N 41°27' W 070°36'0 0.0
2017-Aug-15 07:21N 41°27' W 070°36'0 0.0
2017-Aug-15 07:00N 41°27' W 070°36'0 0.0
2017-Aug-15 06:27N 41°27' W 070°36'0 0.0
2017-Aug-15 05:57N 41°27' W 070°36'0 0.0
2017-Aug-15 05:27N 41°27' W 070°36'0 0.0
2017-Aug-15 03:15N 41°27' W 070°36'0 0.0
2017-Aug-15 03:00N 41°27' W 070°36'0 0.0
2017-Aug-15 02:27N 41°27' W 070°36'0 0.0
2017-Aug-15 01:57N 41°27' W 070°36'0 0.0
2017-Aug-15 01:30N 41°27' W 070°36'0 0.0
2017-Aug-15 01:00N 41°27' W 070°36'0 0.0
2017-Aug-15 00:30N 41°27' W 070°36'0 0.0
2017-Aug-14 23:57N 41°27' W 070°36'5 3.5
2017-Aug-14 22:38N 41°28' W 070°30'211.4
2017-Aug-14 22:30N 41°28' W 070°28'611.6
2017-Aug-14 22:00N 41°27' W 070°20'611.2
2017-Aug-14 21:29N 41°25' W 070°13'610.7
2017-Aug-14 20:56N 41°21' W 070°08'2 0.5
2017-Aug-14 16:04N 41°19' W 070°06'0 0.1
2017-Aug-14 15:58N 41°19' W 070°06'14 2.5
2017-Aug-14 10:30N 41°27' W 070°21'610.4
2017-Aug-14 09:55N 41°28' W 070°28'37 0.9
2017-Aug-12 17:47N 41°38' W 071°16'3 7.8
2017-Aug-12 17:25N 41°40' W 071°19'4 9.3
2017-Aug-12 17:00N 41°43' W 071°21'4 0.2
2017-Aug-11 22:19N 41°47' W 071°23'310.6
2017-Aug-11 22:00N 41°44' W 071°22'610.8
2017-Aug-11 21:30N 41°39' W 071°19'2 0.2
2017-Aug-11 14:43N 41°40' W 071°16'2 7.3
2017-Aug-11 14:28N 41°38' W 071°16'10 7.6
2017-Aug-11 13:12N 41°29' W 071°20'0 0.0
2017-Aug-11 13:00N 41°29' W 071°20'0 0.0
2017-Aug-11 12:29N 41°29' W 071°20'0 0.0
2017-Aug-11 11:59N 41°29' W 071°20'0 0.0
2017-Aug-11 11:29N 41°29' W 071°20'0 0.0
2017-Aug-11 10:39N 41°29' W 071°20'0 0.0
2017-Aug-11 10:21N 41°29' W 071°20'0 0.0
2017-Aug-11 10:00N 41°29' W 071°20'0 0.0
2017-Aug-11 09:27N 41°29' W 071°20'0 0.0
2017-Aug-11 07:47N 41°29' W 071°20'0 0.0
2017-Aug-11 07:30N 41°29' W 071°20'0 0.0
2017-Aug-11 06:59N 41°29' W 071°20'0 0.0
2017-Aug-11 06:29N 41°29' W 071°20'0 0.0
2017-Aug-11 05:53N 41°29' W 071°20'0 0.0
2017-Aug-11 05:27N 41°29' W 071°20'0 0.0
2017-Aug-11 04:59N 41°29' W 071°20'0 0.0
2017-Aug-11 04:29N 41°29' W 071°20'0 0.0
2017-Aug-11 03:50N 41°29' W 071°20'0 0.0
2017-Aug-11 03:29N 41°29' W 071°20'0 0.0
2017-Aug-11 02:59N 41°29' W 071°20'0 0.0
2017-Aug-11 02:29N 41°29' W 071°20'33 0.8
2017-Aug-09 09:41N 41°27' W 070°36'0 0.0
2017-Aug-09 09:30N 41°27' W 070°36'0 0.0
2017-Aug-09 07:45N 41°27' W 070°36'0 0.0
2017-Aug-09 07:30N 41°27' W 070°36'  

Dump ship's entire track history